createdAt,value
2023-01-28T00:03:51.853Z,3.10
2023-01-28T00:08:53.298Z,3.08
2023-01-28T00:13:55.244Z,3.05
2023-01-28T00:18:56.815Z,3.20
2023-01-28T00:23:58.536Z,2.88
2023-01-28T00:28:59.903Z,3.28
2023-01-28T00:34:01.652Z,3.00
2023-01-28T00:39:03.115Z,2.60
2023-01-28T00:44:05.289Z,3.58
2023-01-28T00:49:06.652Z,3.58
2023-01-28T00:54:08.220Z,4.10
2023-01-28T00:59:09.631Z,3.30
2023-01-28T01:04:11.069Z,4.30
2023-01-28T01:09:13.583Z,4.10
2023-01-28T01:14:15.033Z,3.72
2023-01-28T01:19:16.373Z,4.25
2023-01-28T01:24:17.927Z,3.78
2023-01-28T01:29:19.379Z,4.47
2023-01-28T01:34:20.824Z,3.55
2023-01-28T01:39:22.314Z,3.78
2023-01-28T01:45:02.238Z,3.88
2023-01-28T01:50:14.559Z,4.57
2023-01-28T01:55:20.908Z,4.10
2023-01-28T02:00:22.425Z,4.10
2023-01-28T02:05:23.904Z,5.57
2023-01-28T02:10:25.497Z,5.95
2023-01-28T02:15:27.211Z,5.93
2023-01-28T02:20:51.730Z,5.93
2023-01-28T02:26:17.068Z,5.13
2023-01-28T02:31:27.912Z,5.15
2023-01-28T02:36:41.644Z,9.73
2023-01-28T02:41:50.168Z,8.10
2023-01-28T02:46:53.012Z,7.15
2023-01-28T02:52:22.372Z,5.40
2023-01-28T02:57:51.810Z,5.83
2023-01-28T03:03:15.114Z,5.23
2023-01-28T03:08:17.470Z,5.38
2023-01-28T03:13:18.867Z,5.22
2023-01-28T03:18:25.202Z,6.00
2023-01-28T03:23:34.817Z,5.13
2023-01-28T03:28:38.483Z,5.47
2023-01-28T03:33:41.995Z,5.93
2023-01-28T03:38:43.738Z,6.05
2023-01-28T03:43:45.374Z,7.35
2023-01-28T03:48:46.833Z,5.63
2023-01-28T03:53:48.368Z,6.18
2023-01-28T03:58:49.806Z,5.90
2023-01-28T04:03:51.521Z,6.50
2023-01-28T04:13:54.791Z,5.60
2023-01-28T04:18:56.157Z,5.82
2023-01-28T04:23:57.650Z,5.75
2023-01-28T04:28:59.108Z,5.30
2023-01-28T04:34:00.743Z,6.32
2023-01-28T04:39:02.336Z,5.35
2023-01-28T04:44:03.814Z,4.53
2023-01-28T04:49:05.155Z,4.45
2023-01-28T04:54:07.073Z,4.95
2023-01-28T04:59:10.467Z,5.10
2023-01-28T05:04:11.973Z,4.80
2023-01-28T05:09:13.499Z,4.90
2023-01-28T05:14:17.401Z,4.60
2023-01-28T05:19:18.877Z,4.82
2023-01-28T05:24:20.440Z,4.65
2023-01-28T05:29:22.023Z,4.60
2023-01-28T05:34:23.839Z,4.72
2023-01-28T05:39:27.080Z,5.32
2023-01-28T05:44:28.451Z,6.35
2023-01-28T05:49:29.977Z,5.00
2023-01-28T05:54:31.430Z,4.75
2023-01-28T05:59:32.853Z,4.70
2023-01-28T06:04:34.265Z,4.97
2023-01-28T06:09:35.722Z,4.60
2023-01-28T06:14:37.119Z,4.50
2023-01-28T06:19:41.282Z,4.95
2023-01-28T06:24:42.778Z,5.30
2023-01-28T06:29:44.205Z,5.25
2023-01-28T06:34:45.578Z,4.78
2023-01-28T06:39:46.987Z,5.32
2023-01-28T06:44:51.108Z,4.30
2023-01-28T06:49:52.530Z,4.40
2023-01-28T06:54:53.917Z,4.82
2023-01-28T06:59:55.427Z,4.95
2023-01-28T07:04:57.180Z,5.18
2023-01-28T07:09:59.090Z,5.55
2023-01-28T07:15:02.746Z,5.15
2023-01-28T07:20:05.013Z,5.40
2023-01-28T07:25:07.824Z,4.53
2023-01-28T07:30:09.980Z,5.18
2023-01-28T07:35:12.351Z,6.22
2023-01-28T07:40:14.005Z,5.40
2023-01-28T07:45:16.133Z,6.32
2023-01-28T07:50:17.735Z,6.85
2023-01-28T07:55:19.357Z,6.38
2023-01-28T08:00:25.601Z,7.75
2023-01-28T08:05:36.553Z,6.80
2023-01-28T08:10:38.915Z,6.90
2023-01-28T08:15:40.703Z,7.07
2023-01-28T08:20:45.409Z,7.15
2023-01-28T08:25:47.838Z,7.25
2023-01-28T08:30:51.813Z,6.70
2023-01-28T08:35:53.220Z,6.05
2023-01-28T08:40:56.508Z,6.50
2023-01-28T08:45:59.577Z,7.05
2023-01-28T08:51:03.504Z,6.90
2023-01-28T08:56:05.343Z,6.40
2023-01-28T09:01:07.076Z,6.07
2023-01-28T09:06:08.640Z,5.72
2023-01-28T09:11:10.750Z,6.40
2023-01-28T09:16:12.241Z,5.30
2023-01-28T09:21:13.896Z,5.60
2023-01-28T09:26:15.341Z,5.63
2023-01-28T09:31:16.804Z,5.15
2023-01-28T09:36:18.363Z,5.15
2023-01-28T09:41:25.992Z,5.93
2023-01-28T09:46:35.257Z,6.13
2023-01-28T09:51:42.733Z,10.00
2023-01-28T09:56:47.146Z,9.82
2023-01-28T10:02:00.976Z,11.38
2023-01-28T10:07:34.766Z,10.05
2023-01-28T10:12:54.190Z,9.70
2023-01-28T10:18:16.006Z,9.37
2023-01-28T10:23:30.308Z,8.85
2023-01-28T10:28:34.851Z,9.23
2023-01-28T10:33:37.900Z,8.95
2023-01-28T10:38:39.638Z,12.90
2023-01-28T10:43:42.655Z,10.82
2023-01-28T10:48:59.376Z,11.52
2023-01-28T10:54:03.556Z,11.65
2023-01-28T10:59:29.608Z,10.90
2023-01-28T11:04:36.440Z,10.15
2023-01-28T11:09:38.320Z,10.18
2023-01-28T11:14:49.734Z,11.45
2023-01-28T11:19:53.527Z,10.25
2023-01-28T11:24:55.315Z,12.82
2023-01-28T11:29:58.893Z,10.18
2023-01-28T11:35:00.540Z,11.10
2023-01-28T11:40:20.676Z,11.65
2023-01-28T11:45:58.714Z,10.63
2023-01-28T11:51:04.788Z,11.30
2023-01-28T11:56:32.020Z,10.57
2023-01-28T12:01:54.384Z,11.52
2023-01-28T12:07:42.480Z,9.75
2023-01-28T12:13:14.230Z,12.15
2023-01-28T12:18:41.219Z,12.75
2023-01-28T12:23:51.607Z,11.30
2023-01-28T12:29:08.456Z,11.93
2023-01-28T12:34:51.828Z,10.88
2023-01-28T12:40:20.824Z,10.60
2023-01-28T12:45:33.168Z,9.77
2023-01-28T12:50:41.665Z,11.25
2023-01-28T12:55:47.769Z,11.68
2023-01-28T13:00:54.815Z,11.77
2023-01-28T13:06:02.333Z,14.65
2023-01-28T13:11:05.987Z,12.63
2023-01-28T13:16:11.456Z,11.15
2023-01-28T13:21:12.825Z,12.13
2023-01-28T13:26:20.366Z,11.18
2023-01-28T13:31:25.194Z,11.77
2023-01-28T13:36:33.572Z,9.63
2023-01-28T13:41:38.040Z,11.00
2023-01-28T13:46:39.585Z,9.63
2023-01-28T13:51:53.870Z,8.35
2023-01-28T13:57:01.044Z,8.93
2023-01-28T14:02:28.844Z,7.05
2023-01-28T14:07:33.402Z,7.70
2023-01-28T14:12:56.192Z,9.13
2023-01-28T14:17:59.616Z,8.32
2023-01-28T14:23:03.469Z,8.55
2023-01-28T14:28:09.387Z,7.28
2023-01-28T14:33:12.309Z,10.35
2023-01-28T14:38:20.664Z,9.32
2023-01-28T14:43:24.799Z,9.52
2023-01-28T14:48:41.350Z,8.68
2023-01-28T14:53:46.078Z,8.80
2023-01-28T14:58:58.778Z,8.77
2023-01-28T15:04:00.181Z,8.93
2023-01-28T15:09:09.904Z,8.70
2023-01-28T15:14:29.463Z,9.52
2023-01-28T15:19:37.296Z,9.40
2023-01-28T15:24:42.864Z,9.20
2023-01-28T15:29:53.356Z,9.63
2023-01-28T15:34:55.264Z,8.70
2023-01-28T15:40:06.028Z,8.25
2023-01-28T15:45:18.570Z,7.55
2023-01-28T15:50:25.775Z,8.30
2023-01-28T15:55:35.807Z,8.82
2023-01-28T16:00:37.919Z,11.40
2023-01-28T16:05:42.628Z,11.77
2023-01-28T16:10:57.278Z,12.15
2023-01-28T16:16:01.157Z,12.82
2023-01-28T16:21:04.744Z,13.13
2023-01-28T16:26:24.315Z,14.93
2023-01-28T16:31:26.221Z,14.17
2023-01-28T16:36:27.727Z,12.55
2023-01-28T16:41:38.263Z,14.20
2023-01-28T16:46:40.092Z,13.60
2023-01-28T16:51:42.744Z,12.82
2023-01-28T16:56:46.309Z,14.68
2023-01-28T17:01:49.300Z,15.40
2023-01-28T17:06:52.597Z,13.80
2023-01-28T17:11:54.578Z,13.00
2023-01-28T17:16:55.947Z,13.43
2023-01-28T17:22:00.167Z,14.20
2023-01-28T17:27:02.381Z,14.90
2023-01-28T17:32:04.204Z,13.27
2023-01-28T17:37:05.705Z,15.00
2023-01-28T17:42:07.659Z,14.48
2023-01-28T17:47:09.307Z,13.55
2023-01-28T17:52:10.732Z,14.68
2023-01-28T17:57:12.073Z,13.68
2023-01-28T18:02:14.320Z,13.27
2023-01-28T18:07:16.272Z,15.85
2023-01-28T18:12:17.773Z,14.88
2023-01-28T18:17:19.195Z,17.38
2023-01-28T18:22:20.781Z,17.80
2023-01-28T18:27:22.164Z,18.55
2023-01-28T18:32:23.555Z,20.75
2023-01-28T18:37:25.071Z,19.77
2023-01-28T18:42:26.460Z,20.45
2023-01-28T18:47:27.894Z,19.73
2023-01-28T18:52:29.243Z,20.73
2023-01-28T18:57:30.837Z,22.23
2023-01-28T19:02:32.319Z,21.58
2023-01-28T19:07:33.809Z,20.77
2023-01-28T19:12:35.204Z,21.02
2023-01-28T19:17:37.327Z,20.95
2023-01-28T19:22:40.786Z,22.65
2023-01-28T19:27:43.373Z,20.88
2023-01-28T19:32:44.859Z,21.58
2023-01-28T19:37:46.414Z,20.42
2023-01-28T19:42:47.835Z,21.65
2023-01-28T19:47:49.251Z,24.50
2023-01-28T19:52:50.760Z,25.00
2023-01-28T19:57:52.204Z,22.98
2023-01-28T20:02:54.180Z,23.40
2023-01-28T20:07:55.610Z,24.42
2023-01-28T20:12:57.255Z,23.27
2023-01-28T20:17:58.717Z,22.95
2023-01-28T20:23:01.060Z,23.58
2023-01-28T20:28:02.479Z,23.38
2023-01-28T20:33:03.914Z,24.85
2023-01-28T20:38:05.786Z,21.77
2023-01-28T20:43:07.220Z,21.33
2023-01-28T20:48:08.780Z,22.52
2023-01-28T20:53:11.917Z,24.17
2023-01-28T20:58:13.404Z,22.45
2023-01-28T21:03:17.262Z,23.30
2023-01-28T21:08:19.028Z,21.52
2023-01-28T21:13:20.430Z,23.65
2023-01-28T21:18:22.431Z,22.20
2023-01-28T21:23:26.446Z,24.25
2023-01-28T21:28:28.191Z,23.75
2023-01-28T21:33:34.182Z,23.45
2023-01-28T21:38:36.991Z,23.33
2023-01-28T21:43:38.420Z,23.48
2023-01-28T21:48:39.972Z,23.45
2023-01-28T21:53:42.060Z,26.25
2023-01-28T21:58:43.527Z,24.25
2023-01-28T22:03:45.013Z,22.73
2023-01-28T22:08:46.539Z,25.15
2023-01-28T22:13:50.296Z,24.23
2023-01-28T22:19:02.707Z,24.35
2023-01-28T22:24:08.475Z,22.77
2023-01-28T22:29:11.228Z,26.17
2023-01-28T22:34:13.351Z,25.50
2023-01-28T22:39:16.944Z,26.20
2023-01-28T22:44:19.333Z,25.27
2023-01-28T22:49:21.158Z,23.48
2023-01-28T22:54:22.607Z,26.45
2023-01-28T22:59:24.024Z,27.50
2023-01-28T23:04:25.425Z,26.02
2023-01-28T23:09:26.987Z,26.60
2023-01-28T23:14:28.388Z,29.02
2023-01-28T23:19:30.032Z,27.40
2023-01-28T23:24:32.101Z,25.95
2023-01-28T23:29:33.606Z,26.25
2023-01-28T23:34:38.134Z,26.00
2023-01-28T23:39:40.171Z,27.27
2023-01-28T23:44:41.898Z,26.13
2023-01-28T23:49:43.295Z,32.15
2023-01-28T23:54:44.841Z,32.03
2023-01-28T23:59:46.224Z,32.78
